sensor_id;sensor_type;location;lat;lon;timestamp;temperature;humidity
11043;DHT22;5574;48.786;10.120;2022-12-29T00:00:04;7.00;99.90
11043;DHT22;5574;48.786;10.120;2022-12-29T00:02:31;7.10;99.90
11043;DHT22;5574;48.786;10.120;2022-12-29T00:04:57;7.10;99.90
11043;DHT22;5574;48.786;10.120;2022-12-29T00:07:26;7.10;99.90
11043;DHT22;5574;48.786;10.120;2022-12-29T00:09:52;7.10;99.90
11043;DHT22;5574;48.786;10.120;2022-12-29T00:12:19;7.20;99.90
11043;DHT22;5574;48.786;10.120;2022-12-29T00:14:46;7.20;99.90
11043;DHT22;5574;48.786;10.120;2022-12-29T00:17:30;7.10;99.90
11043;DHT22;5574;48.786;10.120;2022-12-29T00:19:56;7.20;99.90
11043;DHT22;5574;48.786;10.120;2022-12-29T00:22:42;7.30;99.90
11043;DHT22;5574;48.786;10.120;2022-12-29T00:25:26;7.30;99.90
11043;DHT22;5574;48.786;10.120;2022-12-29T00:28:10;7.30;99.90
11043;DHT22;5574;48.786;10.120;2022-12-29T00:30:58;7.30;99.90
11043;DHT22;5574;48.786;10.120;2022-12-29T00:33:54;7.30;99.90
11043;DHT22;5574;48.786;10.120;2022-12-29T00:36:40;7.30;99.90
11043;DHT22;5574;48.786;10.120;2022-12-29T00:39:12;7.30;99.90
11043;DHT22;5574;48.786;10.120;2022-12-29T00:42:03;7.40;99.90
11043;DHT22;5574;48.786;10.120;2022-12-29T00:44:47;7.40;99.90
11043;DHT22;5574;48.786;10.120;2022-12-29T00:47:14;7.40;99.90
11043;DHT22;5574;48.786;10.120;2022-12-29T00:49:41;7.40;99.90
11043;DHT22;5574;48.786;10.120;2022-12-29T00:52:08;7.50;99.90
11043;DHT22;5574;48.786;10.120;2022-12-29T00:54:37;7.50;99.90
11043;DHT22;5574;48.786;10.120;2022-12-29T00:57:05;7.50;99.90
11043;DHT22;5574;48.786;10.120;2022-12-29T00:59:34;7.50;99.90
11043;DHT22;5574;48.786;10.120;2022-12-29T01:02:01;7.50;99.90
11043;DHT22;5574;48.786;10.120;2022-12-29T01:04:27;7.50;99.90
11043;DHT22;5574;48.786;10.120;2022-12-29T01:06:54;7.50;99.90
11043;DHT22;5574;48.786;10.120;2022-12-29T01:09:21;7.40;99.90
11043;DHT22;5574;48.786;10.120;2022-12-29T01:12:08;7.40;99.90
11043;DHT22;5574;48.786;10.120;2022-12-29T01:14:36;7.40;99.90
11043;DHT22;5574;48.786;10.120;2022-12-29T01:17:03;7.40;99.90
11043;DHT22;5574;48.786;10.120;2022-12-29T01:19:30;7.50;99.90
11043;DHT22;5574;48.786;10.120;2022-12-29T01:21:57;7.50;99.90
11043;DHT22;5574;48.786;10.120;2022-12-29T01:24:24;7.50;99.90
11043;DHT22;5574;48.786;10.120;2022-12-29T01:26:51;7.50;99.90
11043;DHT22;5574;48.786;10.120;2022-12-29T01:29:21;7.50;99.90
11043;DHT22;5574;48.786;10.120;2022-12-29T01:31:48;7.50;99.90
11043;DHT22;5574;48.786;10.120;2022-12-29T01:34:15;7.50;99.90
11043;DHT22;5574;48.786;10.120;2022-12-29T01:36:41;7.50;99.90
11043;DHT22;5574;48.786;10.120;2022-12-29T01:39:08;7.50;99.90
11043;DHT22;5574;48.786;10.120;2022-12-29T01:41:35;7.50;99.90
11043;DHT22;5574;48.786;10.120;2022-12-29T01:44:02;7.50;99.90
11043;DHT22;5574;48.786;10.120;2022-12-29T01:46:33;7.50;99.90
11043;DHT22;5574;48.786;10.120;2022-12-29T01:49:05;7.50;99.90
11043;DHT22;5574;48.786;10.120;2022-12-29T01:51:36;7.50;99.90
11043;DHT22;5574;48.786;10.120;2022-12-29T01:54:09;7.50;99.90
11043;DHT22;5574;48.786;10.120;2022-12-29T01:56:37;7.40;99.90
11043;DHT22;5574;48.786;10.120;2022-12-29T01:59:09;7.40;99.90
11043;DHT22;5574;48.786;10.120;2022-12-29T02:01:39;7.30;99.90
11043;DHT22;5574;48.786;10.120;2022-12-29T02:04:06;7.30;99.90
11043;DHT22;5574;48.786;10.120;2022-12-29T02:06:38;7.20;99.90
11043;DHT22;5574;48.786;10.120;2022-12-29T02:09:08;7.20;99.90
11043;DHT22;5574;48.786;10.120;2022-12-29T02:11:35;7.10;99.90
11043;DHT22;5574;48.786;10.120;2022-12-29T02:14:08;7.20;99.90
11043;DHT22;5574;48.786;10.120;2022-12-29T02:16:46;7.20;99.90
11043;DHT22;5574;48.786;10.120;2022-12-29T02:19:58;7.30;99.90
11043;DHT22;5574;48.786;10.120;2022-12-29T02:22:34;7.40;99.90
11043;DHT22;5574;48.786;10.120;2022-12-29T02:25:33;7.40;99.90
11043;DHT22;5574;48.786;10.120;2022-12-29T02:28:38;7.50;99.90
11043;DHT22;5574;48.786;10.120;2022-12-29T02:31:17;7.60;99.90
11043;DHT22;5574;48.786;10.120;2022-12-29T02:33:56;7.60;99.90
11043;DHT22;5574;48.786;10.120;2022-12-29T02:36:32;7.60;99.90
11043;DHT22;5574;48.786;10.120;2022-12-29T02:39:07;7.70;99.90
11043;DHT22;5574;48.786;10.120;2022-12-29T02:41:44;7.70;99.90
11043;DHT22;5574;48.786;10.120;2022-12-29T02:44:21;7.80;99.90
11043;DHT22;5574;48.786;10.120;2022-12-29T02:46:53;7.80;99.90
11043;DHT22;5574;48.786;10.120;2022-12-29T02:49:25;7.80;99.90
11043;DHT22;5574;48.786;10.120;2022-12-29T02:52:00;7.80;99.90
11043;DHT22;5574;48.786;10.120;2022-12-29T02:54:29;7.90;99.90
11043;DHT22;5574;48.786;10.120;2022-12-29T02:57:11;7.80;99.90
11043;DHT22;5574;48.786;10.120;2022-12-29T02:59:37;7.80;99.90
11043;DHT22;5574;48.786;10.120;2022-12-29T03:02:26;7.90;99.90
11043;DHT22;5574;48.786;10.120;2022-12-29T03:05:10;7.90;99.90
11043;DHT22;5574;48.786;10.120;2022-12-29T03:07:49;7.90;99.90
11043;DHT22;5574;48.786;10.120;2022-12-29T03:10:31;7.90;99.90
11043;DHT22;5574;48.786;10.120;2022-12-29T03:13:05;7.90;99.90
11043;DHT22;5574;48.786;10.120;2022-12-29T03:15:55;7.90;99.90
11043;DHT22;5574;48.786;10.120;2022-12-29T03:18:35;7.80;99.90
11043;DHT22;5574;48.786;10.120;2022-12-29T03:21:09;7.90;99.90
11043;DHT22;5574;48.786;10.120;2022-12-29T03:23:37;7.90;99.90
11043;DHT22;5574;48.786;10.120;2022-12-29T03:26:08;7.80;99.90
11043;DHT22;5574;48.786;10.120;2022-12-29T03:28:39;7.80;99.90
11043;DHT22;5574;48.786;10.120;2022-12-29T03:31:08;7.80;99.90
11043;DHT22;5574;48.786;10.120;2022-12-29T03:33:37;7.80;99.90
11043;DHT22;5574;48.786;10.120;2022-12-29T03:36:08;7.80;99.90
11043;DHT22;5574;48.786;10.120;2022-12-29T03:38:42;7.80;99.90
11043;DHT22;5574;48.786;10.120;2022-12-29T03:41:12;7.80;99.90
11043;DHT22;5574;48.786;10.120;2022-12-29T03:43:41;7.80;99.90
11043;DHT22;5574;48.786;10.120;2022-12-29T03:46:07;7.80;99.90
11043;DHT22;5574;48.786;10.120;2022-12-29T03:48:35;7.80;99.90
11043;DHT22;5574;48.786;10.120;2022-12-29T03:51:02;7.90;99.90
11043;DHT22;5574;48.786;10.120;2022-12-29T03:53:29;7.90;99.90
11043;DHT22;5574;48.786;10.120;2022-12-29T03:55:56;7.90;99.90
11043;DHT22;5574;48.786;10.120;2022-12-29T03:58:23;7.90;99.90
11043;DHT22;5574;48.786;10.120;2022-12-29T04:00:49;7.90;99.90
11043;DHT22;5574;48.786;10.120;2022-12-29T04:03:16;7.90;99.90
11043;DHT22;5574;48.786;10.120;2022-12-29T04:05:44;8.00;99.90
11043;DHT22;5574;48.786;10.120;2022-12-29T04:08:11;8.00;99.90
11043;DHT22;5574;48.786;10.120;2022-12-29T04:10:37;8.00;99.90
11043;DHT22;5574;48.786;10.120;2022-12-29T04:13:04;8.00;99.90
11043;DHT22;5574;48.786;10.120;2022-12-29T04:15:31;8.00;99.90
11043;DHT22;5574;48.786;10.120;2022-12-29T04:17:57;8.00;99.90
11043;DHT22;5574;48.786;10.120;2022-12-29T04:20:24;8.00;99.90
11043;DHT22;5574;48.786;10.120;2022-12-29T04:23:09;8.00;99.90
11043;DHT22;5574;48.786;10.120;2022-12-29T04:25:36;8.00;99.90
11043;DHT22;5574;48.786;10.120;2022-12-29T04:28:03;7.90;99.90
11043;DHT22;5574;48.786;10.120;2022-12-29T04:30:30;7.90;99.90
11043;DHT22;5574;48.786;10.120;2022-12-29T04:32:57;8.00;99.90
11043;DHT22;5574;48.786;10.120;2022-12-29T04:35:23;8.00;99.90
11043;DHT22;5574;48.786;10.120;2022-12-29T04:37:50;8.00;99.90
11043;DHT22;5574;48.786;10.120;2022-12-29T04:40:18;7.90;99.90
11043;DHT22;5574;48.786;10.120;2022-12-29T04:42:45;7.90;99.90
11043;DHT22;5574;48.786;10.120;2022-12-29T04:45:12;7.90;99.90
11043;DHT22;5574;48.786;10.120;2022-12-29T04:47:38;7.80;99.90
11043;DHT22;5574;48.786;10.120;2022-12-29T04:50:06;7.80;99.90
11043;DHT22;5574;48.786;10.120;2022-12-29T04:52:32;7.80;99.90
11043;DHT22;5574;48.786;10.120;2022-12-29T04:54:59;7.70;99.90
11043;DHT22;5574;48.786;10.120;2022-12-29T04:57:27;7.70;99.90
11043;DHT22;5574;48.786;10.120;2022-12-29T04:59:54;7.60;99.90
11043;DHT22;5574;48.786;10.120;2022-12-29T05:02:21;7.60;99.90
11043;DHT22;5574;48.786;10.120;2022-12-29T05:04:48;7.60;99.90
11043;DHT22;5574;48.786;10.120;2022-12-29T05:07:15;7.60;99.90
11043;DHT22;5574;48.786;10.120;2022-12-29T05:09:41;7.50;99.90
11043;DHT22;5574;48.786;10.120;2022-12-29T05:12:08;7.40;99.90
11043;DHT22;5574;48.786;10.120;2022-12-29T05:14:36;7.40;99.90
11043;DHT22;5574;48.786;10.120;2022-12-29T05:17:03;7.30;99.90
11043;DHT22;5574;48.786;10.120;2022-12-29T05:19:29;7.20;99.90
11043;DHT22;5574;48.786;10.120;2022-12-29T05:21:56;7.10;99.90
11043;DHT22;5574;48.786;10.120;2022-12-29T05:24:23;7.10;99.90
11043;DHT22;5574;48.786;10.120;2022-12-29T05:26:50;7.00;99.90
11043;DHT22;5574;48.786;10.120;2022-12-29T05:29:17;7.00;99.90
11043;DHT22;5574;48.786;10.120;2022-12-29T05:31:45;6.90;99.90
11043;DHT22;5574;48.786;10.120;2022-12-29T05:34:11;6.80;99.90
11043;DHT22;5574;48.786;10.120;2022-12-29T05:36:39;6.70;99.90
11043;DHT22;5574;48.786;10.120;2022-12-29T05:39:05;6.70;99.90
11043;DHT22;5574;48.786;10.120;2022-12-29T05:41:33;6.60;99.90
11043;DHT22;5574;48.786;10.120;2022-12-29T05:44:00;6.60;99.90
11043;DHT22;5574;48.786;10.120;2022-12-29T05:46:27;6.50;99.90
11043;DHT22;5574;48.786;10.120;2022-12-29T05:48:55;6.50;99.90
11043;DHT22;5574;48.786;10.120;2022-12-29T05:51:21;6.50;99.90
11043;DHT22;5574;48.786;10.120;2022-12-29T05:53:48;6.40;99.90
11043;DHT22;5574;48.786;10.120;2022-12-29T05:56:15;6.40;99.90
11043;DHT22;5574;48.786;10.120;2022-12-29T05:58:41;6.40;99.90
11043;DHT22;5574;48.786;10.120;2022-12-29T06:01:08;6.30;99.90
11043;DHT22;5574;48.786;10.120;2022-12-29T06:03:35;6.30;99.90
11043;DHT22;5574;48.786;10.120;2022-12-29T06:06:03;6.20;99.90
11043;DHT22;5574;48.786;10.120;2022-12-29T06:08:30;6.20;99.90
11043;DHT22;5574;48.786;10.120;2022-12-29T06:10:56;6.20;99.90
11043;DHT22;5574;48.786;10.120;2022-12-29T06:13:23;6.10;99.90
11043;DHT22;5574;48.786;10.120;2022-12-29T06:15:50;6.10;99.90
11043;DHT22;5574;48.786;10.120;2022-12-29T06:18:17;6.10;99.90
11043;DHT22;5574;48.786;10.120;2022-12-29T06:20:44;6.10;99.90
11043;DHT22;5574;48.786;10.120;2022-12-29T06:23:12;6.10;99.90
11043;DHT22;5574;48.786;10.120;2022-12-29T06:25:38;6.00;99.90
11043;DHT22;5574;48.786;10.120;2022-12-29T06:28:06;6.00;99.90
11043;DHT22;5574;48.786;10.120;2022-12-29T06:30:32;5.90;99.90
11043;DHT22;5574;48.786;10.120;2022-12-29T06:32:59;5.90;99.90
11043;DHT22;5574;48.786;10.120;2022-12-29T06:35:26;5.80;99.90
11043;DHT22;5574;48.786;10.120;2022-12-29T06:37:53;5.90;99.90
11043;DHT22;5574;48.786;10.120;2022-12-29T06:40:21;5.80;99.90
11043;DHT22;5574;48.786;10.120;2022-12-29T06:42:48;5.80;99.90
11043;DHT22;5574;48.786;10.120;2022-12-29T06:45:15;5.80;99.90
11043;DHT22;5574;48.786;10.120;2022-12-29T06:47:41;5.80;99.90
11043;DHT22;5574;48.786;10.120;2022-12-29T06:50:08;5.80;99.90
11043;DHT22;5574;48.786;10.120;2022-12-29T06:52:35;5.80;99.90
11043;DHT22;5574;48.786;10.120;2022-12-29T06:55:02;5.80;99.90
11043;DHT22;5574;48.786;10.120;2022-12-29T06:57:30;5.80;99.90
11043;DHT22;5574;48.786;10.120;2022-12-29T06:59:57;5.80;99.90
11043;DHT22;5574;48.786;10.120;2022-12-29T07:02:24;5.90;99.90
11043;DHT22;5574;48.786;10.120;2022-12-29T07:04:51;6.00;99.90
11043;DHT22;5574;48.786;10.120;2022-12-29T07:07:18;6.00;99.90
11043;DHT22;5574;48.786;10.120;2022-12-29T07:09:45;6.10;99.90
11043;DHT22;5574;48.786;10.120;2022-12-29T07:12:12;6.20;99.90
11043;DHT22;5574;48.786;10.120;2022-12-29T07:14:40;6.30;99.90
11043;DHT22;5574;48.786;10.120;2022-12-29T07:17:07;6.30;99.90
11043;DHT22;5574;48.786;10.120;2022-12-29T07:19:34;6.30;99.90
11043;DHT22;5574;48.786;10.120;2022-12-29T07:22:01;6.30;99.90
11043;DHT22;5574;48.786;10.120;2022-12-29T07:24:27;6.30;99.90
11043;DHT22;5574;48.786;10.120;2022-12-29T07:26:55;6.30;99.90
11043;DHT22;5574;48.786;10.120;2022-12-29T07:29:22;6.30;99.90
11043;DHT22;5574;48.786;10.120;2022-12-29T07:31:50;6.30;99.90
11043;DHT22;5574;48.786;10.120;2022-12-29T07:34:16;6.30;99.90
11043;DHT22;5574;48.786;10.120;2022-12-29T07:36:43;6.40;99.90
11043;DHT22;5574;48.786;10.120;2022-12-29T07:39:10;6.40;99.90
11043;DHT22;5574;48.786;10.120;2022-12-29T07:41:37;6.40;99.90
11043;DHT22;5574;48.786;10.120;2022-12-29T07:44:04;6.40;99.90
11043;DHT22;5574;48.786;10.120;2022-12-29T07:49:02;6.50;99.90
11043;DHT22;5574;48.786;10.120;2022-12-29T07:51:28;6.50;99.90
11043;DHT22;5574;48.786;10.120;2022-12-29T07:53:55;6.50;99.90
11043;DHT22;5574;48.786;10.120;2022-12-29T07:56:22;6.50;99.90
11043;DHT22;5574;48.786;10.120;2022-12-29T07:58:48;6.60;99.90
11043;DHT22;5574;48.786;10.120;2022-12-29T08:01:15;6.60;99.90
11043;DHT22;5574;48.786;10.120;2022-12-29T08:03:41;6.70;99.90
11043;DHT22;5574;48.786;10.120;2022-12-29T08:06:10;6.70;99.90
11043;DHT22;5574;48.786;10.120;2022-12-29T08:08:37;6.70;99.90
11043;DHT22;5574;48.786;10.120;2022-12-29T08:11:04;6.70;99.90
11043;DHT22;5574;48.786;10.120;2022-12-29T08:13:31;6.70;99.90
11043;DHT22;5574;48.786;10.120;2022-12-29T08:15:58;6.80;99.90
11043;DHT22;5574;48.786;10.120;2022-12-29T08:18:25;6.80;99.90
11043;DHT22;5574;48.786;10.120;2022-12-29T08:20:51;6.80;99.90
11043;DHT22;5574;48.786;10.120;2022-12-29T08:23:19;6.80;99.90
11043;DHT22;5574;48.786;10.120;2022-12-29T08:25:46;6.80;99.90
11043;DHT22;5574;48.786;10.120;2022-12-29T08:28:13;6.80;99.90
11043;DHT22;5574;48.786;10.120;2022-12-29T08:30:39;6.80;99.90
11043;DHT22;5574;48.786;10.120;2022-12-29T08:33:06;6.90;99.90
11043;DHT22;5574;48.786;10.120;2022-12-29T08:35:33;6.80;99.90
11043;DHT22;5574;48.786;10.120;2022-12-29T08:37:59;6.80;99.90
11043;DHT22;5574;48.786;10.120;2022-12-29T08:40:27;6.90;99.90
11043;DHT22;5574;48.786;10.120;2022-12-29T08:42:54;6.90;99.90
11043;DHT22;5574;48.786;10.120;2022-12-29T08:45:21;6.90;99.90
11043;DHT22;5574;48.786;10.120;2022-12-29T08:47:47;7.00;99.90
11043;DHT22;5574;48.786;10.120;2022-12-29T08:50:14;7.10;99.90
11043;DHT22;5574;48.786;10.120;2022-12-29T08:52:41;7.20;99.90
11043;DHT22;5574;48.786;10.120;2022-12-29T08:55:08;7.40;99.90
11043;DHT22;5574;48.786;10.120;2022-12-29T08:57:36;7.60;99.90
11043;DHT22;5574;48.786;10.120;2022-12-29T09:00:04;7.70;99.90
11043;DHT22;5574;48.786;10.120;2022-12-29T09:02:31;7.90;99.90
11043;DHT22;5574;48.786;10.120;2022-12-29T09:04:58;8.30;99.90
11043;DHT22;5574;48.786;10.120;2022-12-29T09:07:25;8.60;99.90
11043;DHT22;5574;48.786;10.120;2022-12-29T09:09:52;9.10;99.90
11043;DHT22;5574;48.786;10.120;2022-12-29T09:12:18;9.30;99.90
11043;DHT22;5574;48.786;10.120;2022-12-29T09:14:47;9.40;99.90
11043;DHT22;5574;48.786;10.120;2022-12-29T09:17:13;9.50;99.90
11043;DHT22;5574;48.786;10.120;2022-12-29T09:19:58;9.60;99.90
11043;DHT22;5574;48.786;10.120;2022-12-29T09:22:24;9.60;99.90
11043;DHT22;5574;48.786;10.120;2022-12-29T09:24:51;9.70;99.90
11043;DHT22;5574;48.786;10.120;2022-12-29T09:27:18;9.70;99.90
11043;DHT22;5574;48.786;10.120;2022-12-29T09:29:44;9.80;99.90
11043;DHT22;5574;48.786;10.120;2022-12-29T09:32:12;9.80;99.90
11043;DHT22;5574;48.786;10.120;2022-12-29T09:34:39;9.90;99.90
11043;DHT22;5574;48.786;10.120;2022-12-29T09:37:06;9.90;99.90
11043;DHT22;5574;48.786;10.120;2022-12-29T09:39:33;9.90;99.90
11043;DHT22;5574;48.786;10.120;2022-12-29T09:42:04;9.90;99.90
11043;DHT22;5574;48.786;10.120;2022-12-29T09:44:46;9.90;99.90
11043;DHT22;5574;48.786;10.120;2022-12-29T09:47:17;9.90;99.90
11043;DHT22;5574;48.786;10.120;2022-12-29T09:49:46;9.90;99.90
11043;DHT22;5574;48.786;10.120;2022-12-29T09:52:16;10.00;99.90
11043;DHT22;5574;48.786;10.120;2022-12-29T09:54:50;10.00;99.90
11043;DHT22;5574;48.786;10.120;2022-12-29T09:57:23;10.00;99.90
11043;DHT22;5574;48.786;10.120;2022-12-29T09:59:54;10.00;99.90
11043;DHT22;5574;48.786;10.120;2022-12-29T10:02:32;10.10;99.90
11043;DHT22;5574;48.786;10.120;2022-12-29T10:04:59;10.20;99.90
11043;DHT22;5574;48.786;10.120;2022-12-29T10:07:34;10.30;99.90
11043;DHT22;5574;48.786;10.120;2022-12-29T10:10:14;10.40;99.90
11043;DHT22;5574;48.786;10.120;2022-12-29T10:13:17;10.50;99.90
11043;DHT22;5574;48.786;10.120;2022-12-29T10:15:54;10.50;99.90
11043;DHT22;5574;48.786;10.120;2022-12-29T10:21:33;10.40;99.90
11043;DHT22;5574;48.786;10.120;2022-12-29T10:24:04;10.40;99.90
11043;DHT22;5574;48.786;10.120;2022-12-29T10:26:37;10.30;99.90
11043;DHT22;5574;48.786;10.120;2022-12-29T10:29:06;10.30;99.90
11043;DHT22;5574;48.786;10.120;2022-12-29T10:31:37;10.30;99.90
11043;DHT22;5574;48.786;10.120;2022-12-29T10:34:12;10.40;99.90
11043;DHT22;5574;48.786;10.120;2022-12-29T10:36:44;10.40;99.90
11043;DHT22;5574;48.786;10.120;2022-12-29T10:39:20;10.40;99.90
11043;DHT22;5574;48.786;10.120;2022-12-29T10:41:50;10.40;99.90
11043;DHT22;5574;48.786;10.120;2022-12-29T10:44:18;10.30;99.90
11043;DHT22;5574;48.786;10.120;2022-12-29T10:46:54;10.30;99.90
11043;DHT22;5574;48.786;10.120;2022-12-29T10:49:21;10.30;99.90
11043;DHT22;5574;48.786;10.120;2022-12-29T10:51:55;10.30;99.90
11043;DHT22;5574;48.786;10.120;2022-12-29T10:54:26;10.30;99.90
11043;DHT22;5574;48.786;10.120;2022-12-29T10:56:56;10.30;99.90
11043;DHT22;5574;48.786;10.120;2022-12-29T10:59:29;10.30;99.90
11043;DHT22;5574;48.786;10.120;2022-12-29T11:02:01;10.30;99.90
11043;DHT22;5574;48.786;10.120;2022-12-29T11:04:40;10.20;99.90
11043;DHT22;5574;48.786;10.120;2022-12-29T11:07:12;10.20;99.90
11043;DHT22;5574;48.786;10.120;2022-12-29T11:09:40;10.20;99.90
11043;DHT22;5574;48.786;10.120;2022-12-29T11:12:22;10.20;99.90
11043;DHT22;5574;48.786;10.120;2022-12-29T11:15:02;10.20;99.90
11043;DHT22;5574;48.786;10.120;2022-12-29T11:17:29;10.20;99.90
11043;DHT22;5574;48.786;10.120;2022-12-29T11:19:56;10.20;99.90
11043;DHT22;5574;48.786;10.120;2022-12-29T11:22:26;10.20;99.90
11043;DHT22;5574;48.786;10.120;2022-12-29T11:24:54;10.20;99.90
11043;DHT22;5574;48.786;10.120;2022-12-29T11:27:31;10.20;99.90
11043;DHT22;5574;48.786;10.120;2022-12-29T11:29:58;10.30;99.90
11043;DHT22;5574;48.786;10.120;2022-12-29T11:32:26;10.30;99.90
11043;DHT22;5574;48.786;10.120;2022-12-29T11:34:55;10.30;99.90
11043;DHT22;5574;48.786;10.120;2022-12-29T11:37:29;10.40;99.90
11043;DHT22;5574;48.786;10.120;2022-12-29T11:40:01;10.40;99.90
11043;DHT22;5574;48.786;10.120;2022-12-29T11:42:35;10.40;99.90
11043;DHT22;5574;48.786;10.120;2022-12-29T11:45:05;10.40;99.90
11043;DHT22;5574;48.786;10.120;2022-12-29T11:47:33;10.40;99.90
11043;DHT22;5574;48.786;10.120;2022-12-29T11:50:04;10.50;99.90
11043;DHT22;5574;48.786;10.120;2022-12-29T11:52:35;10.50;99.90
11043;DHT22;5574;48.786;10.120;2022-12-29T11:55:16;10.50;99.90
11043;DHT22;5574;48.786;10.120;2022-12-29T11:57:43;10.60;99.90
11043;DHT22;5574;48.786;10.120;2022-12-29T12:00:16;10.60;99.90
11043;DHT22;5574;48.786;10.120;2022-12-29T12:02:50;10.60;99.90
11043;DHT22;5574;48.786;10.120;2022-12-29T12:05:22;10.60;99.90
11043;DHT22;5574;48.786;10.120;2022-12-29T12:07:56;10.60;99.90
11043;DHT22;5574;48.786;10.120;2022-12-29T12:10:29;10.50;99.90
11043;DHT22;5574;48.786;10.120;2022-12-29T12:13:08;10.50;99.90
11043;DHT22;5574;48.786;10.120;2022-12-29T12:15:40;10.50;99.90
11043;DHT22;5574;48.786;10.120;2022-12-29T12:18:11;10.50;99.90
11043;DHT22;5574;48.786;10.120;2022-12-29T12:20:46;10.40;99.90
11043;DHT22;5574;48.786;10.120;2022-12-29T12:23:28;10.40;99.90
11043;DHT22;5574;48.786;10.120;2022-12-29T12:26:01;10.40;99.90
11043;DHT22;5574;48.786;10.120;2022-12-29T12:28:34;10.40;99.90
11043;DHT22;5574;48.786;10.120;2022-12-29T12:31:06;10.40;99.90
11043;DHT22;5574;48.786;10.120;2022-12-29T12:33:41;10.30;99.90
11043;DHT22;5574;48.786;10.120;2022-12-29T12:36:23;10.30;99.90
11043;DHT22;5574;48.786;10.120;2022-12-29T12:38:59;10.30;99.90
11043;DHT22;5574;48.786;10.120;2022-12-29T12:41:37;10.30;99.90
11043;DHT22;5574;48.786;10.120;2022-12-29T12:44:15;10.30;99.90
11043;DHT22;5574;48.786;10.120;2022-12-29T12:47:11;10.30;99.90
11043;DHT22;5574;48.786;10.120;2022-12-29T12:50:03;10.30;99.90
11043;DHT22;5574;48.786;10.120;2022-12-29T12:52:42;10.30;99.90
11043;DHT22;5574;48.786;10.120;2022-12-29T12:55:31;10.30;99.90
11043;DHT22;5574;48.786;10.120;2022-12-29T12:58:06;10.40;99.90
11043;DHT22;5574;48.786;10.120;2022-12-29T13:00:42;10.40;99.90
11043;DHT22;5574;48.786;10.120;2022-12-29T13:03:16;10.40;99.90
11043;DHT22;5574;48.786;10.120;2022-12-29T13:06:01;10.40;99.90
11043;DHT22;5574;48.786;10.120;2022-12-29T13:11:24;10.40;99.90
11043;DHT22;5574;48.786;10.120;2022-12-29T13:14:09;10.40;99.90
11043;DHT22;5574;48.786;10.120;2022-12-29T13:16:44;10.50;99.90
11043;DHT22;5574;48.786;10.120;2022-12-29T13:19:17;10.50;99.90
11043;DHT22;5574;48.786;10.120;2022-12-29T13:21:58;10.50;99.90
11043;DHT22;5574;48.786;10.120;2022-12-29T13:24:33;10.50;99.90
11043;DHT22;5574;48.786;10.120;2022-12-29T13:27:11;10.40;99.90
11043;DHT22;5574;48.786;10.120;2022-12-29T13:29:46;10.40;99.90
11043;DHT22;5574;48.786;10.120;2022-12-29T13:32:21;10.40;99.90
11043;DHT22;5574;48.786;10.120;2022-12-29T13:35:00;10.50;99.90
11043;DHT22;5574;48.786;10.120;2022-12-29T13:37:32;10.40;99.90
11043;DHT22;5574;48.786;10.120;2022-12-29T13:40:03;10.40;99.90
11043;DHT22;5574;48.786;10.120;2022-12-29T13:42:32;10.40;99.90
11043;DHT22;5574;48.786;10.120;2022-12-29T13:45:02;10.40;99.90
11043;DHT22;5574;48.786;10.120;2022-12-29T13:47:32;10.50;99.90
11043;DHT22;5574;48.786;10.120;2022-12-29T13:50:01;10.50;99.90
11043;DHT22;5574;48.786;10.120;2022-12-29T13:52:35;10.60;99.90
11043;DHT22;5574;48.786;10.120;2022-12-29T13:55:20;10.60;99.90
11043;DHT22;5574;48.786;10.120;2022-12-29T13:57:53;10.60;99.90
11043;DHT22;5574;48.786;10.120;2022-12-29T14:00:26;10.60;99.90
11043;DHT22;5574;48.786;10.120;2022-12-29T14:06:05;10.70;99.90
11043;DHT22;5574;48.786;10.120;2022-12-29T14:08:37;10.70;99.90
11043;DHT22;5574;48.786;10.120;2022-12-29T14:11:08;10.70;99.90
11043;DHT22;5574;48.786;10.120;2022-12-29T14:13:40;10.70;99.90
11043;DHT22;5574;48.786;10.120;2022-12-29T14:16:34;10.70;99.90
11043;DHT22;5574;48.786;10.120;2022-12-29T14:19:11;10.70;99.90
11043;DHT22;5574;48.786;10.120;2022-12-29T14:21:40;10.70;99.90
11043;DHT22;5574;48.786;10.120;2022-12-29T14:24:27;10.80;99.90
11043;DHT22;5574;48.786;10.120;2022-12-29T14:26:54;10.80;99.90
11043;DHT22;5574;48.786;10.120;2022-12-29T14:29:43;10.80;99.90
11043;DHT22;5574;48.786;10.120;2022-12-29T14:32:35;10.80;99.90
11043;DHT22;5574;48.786;10.120;2022-12-29T14:35:38;10.80;99.90
11043;DHT22;5574;48.786;10.120;2022-12-29T14:38:12;10.80;99.90
11043;DHT22;5574;48.786;10.120;2022-12-29T14:40:41;10.80;99.90
11043;DHT22;5574;48.786;10.120;2022-12-29T14:43:12;10.80;99.90
11043;DHT22;5574;48.786;10.120;2022-12-29T14:45:42;10.80;99.90
11043;DHT22;5574;48.786;10.120;2022-12-29T14:48:36;10.70;99.90
11043;DHT22;5574;48.786;10.120;2022-12-29T14:51:17;10.70;99.90
11043;DHT22;5574;48.786;10.120;2022-12-29T14:53:47;10.80;99.90
11043;DHT22;5574;48.786;10.120;2022-12-29T14:56:16;10.80;99.90
11043;DHT22;5574;48.786;10.120;2022-12-29T14:58:47;10.70;99.90
11043;DHT22;5574;48.786;10.120;2022-12-29T15:01:22;10.70;99.90
11043;DHT22;5574;48.786;10.120;2022-12-29T15:03:53;10.60;99.90
11043;DHT22;5574;48.786;10.120;2022-12-29T15:06:22;10.60;99.90
11043;DHT22;5574;48.786;10.120;2022-12-29T15:08:52;10.60;99.90
11043;DHT22;5574;48.786;10.120;2022-12-29T15:11:22;10.70;99.90
11043;DHT22;5574;48.786;10.120;2022-12-29T15:13:49;10.60;99.90
11043;DHT22;5574;48.786;10.120;2022-12-29T15:16:25;10.60;99.90
11043;DHT22;5574;48.786;10.120;2022-12-29T15:18:52;10.50;99.90
11043;DHT22;5574;48.786;10.120;2022-12-29T15:21:24;10.50;99.90
11043;DHT22;5574;48.786;10.120;2022-12-29T15:23:51;10.40;99.90
11043;DHT22;5574;48.786;10.120;2022-12-29T15:26:19;10.40;99.90
11043;DHT22;5574;48.786;10.120;2022-12-29T15:28:49;10.30;99.90
11043;DHT22;5574;48.786;10.120;2022-12-29T15:31:19;10.20;99.90
11043;DHT22;5574;48.786;10.120;2022-12-29T15:33:49;10.20;99.90
11043;DHT22;5574;48.786;10.120;2022-12-29T15:36:20;10.20;99.90
11043;DHT22;5574;48.786;10.120;2022-12-29T15:38:48;10.10;99.90
11043;DHT22;5574;48.786;10.120;2022-12-29T15:41:26;10.10;99.90
11043;DHT22;5574;48.786;10.120;2022-12-29T15:44:03;10.00;99.90
11043;DHT22;5574;48.786;10.120;2022-12-29T15:46:35;10.00;99.90
11043;DHT22;5574;48.786;10.120;2022-12-29T15:49:06;9.90;99.90
11043;DHT22;5574;48.786;10.120;2022-12-29T15:51:36;9.80;99.90
11043;DHT22;5574;48.786;10.120;2022-12-29T15:54:04;9.80;99.90
11043;DHT22;5574;48.786;10.120;2022-12-29T15:56:32;9.70;99.90
11043;DHT22;5574;48.786;10.120;2022-12-29T15:59:00;9.70;99.90
11043;DHT22;5574;48.786;10.120;2022-12-29T16:01:29;9.70;99.90
11043;DHT22;5574;48.786;10.120;2022-12-29T16:03:57;9.60;99.90
11043;DHT22;5574;48.786;10.120;2022-12-29T16:06:36;9.60;99.90
11043;DHT22;5574;48.786;10.120;2022-12-29T16:09:04;9.60;99.90
11043;DHT22;5574;48.786;10.120;2022-12-29T16:11:35;9.60;99.90
11043;DHT22;5574;48.786;10.120;2022-12-29T16:14:07;9.60;99.90
11043;DHT22;5574;48.786;10.120;2022-12-29T16:16:37;9.60;99.90